sensor_id;sensor_type;location;lat;lon;timestamp;P1;durP1;ratioP1;P2;durP2;ratioP2
77955;SDS011;67152;36.266;32.294;2024-02-26T00:00:00;10.30;;;4.82;;
77955;SDS011;67152;36.266;32.294;2024-02-26T00:02:27;5.78;;;3.80;;
77955;SDS011;67152;36.266;32.294;2024-02-26T00:04:53;9.20;;;5.55;;
77955;SDS011;67152;36.266;32.294;2024-02-26T00:07:19;10.20;;;6.03;;
77955;SDS011;67152;36.266;32.294;2024-02-26T00:09:45;15.30;;;5.43;;
77955;SDS011;67152;36.266;32.294;2024-02-26T00:12:12;7.07;;;5.20;;
77955;SDS011;67152;36.266;32.294;2024-02-26T00:14:38;8.60;;;5.28;;
77955;SDS011;67152;36.266;32.294;2024-02-26T00:17:04;7.40;;;5.60;;
77955;SDS011;67152;36.266;32.294;2024-02-26T00:19:31;9.45;;;5.70;;
77955;SDS011;67152;36.266;32.294;2024-02-26T00:21:57;10.27;;;6.03;;
77955;SDS011;67152;36.266;32.294;2024-02-26T00:24:23;7.32;;;5.18;;
77955;SDS011;67152;36.266;32.294;2024-02-26T00:26:51;7.05;;;4.70;;
77955;SDS011;67152;36.266;32.294;2024-02-26T00:29:20;11.50;;;5.78;;
77955;SDS011;67152;36.266;32.294;2024-02-26T00:31:47;9.63;;;5.43;;
77955;SDS011;67152;36.266;32.294;2024-02-26T00:34:13;8.13;;;4.80;;
77955;SDS011;67152;36.266;32.294;2024-02-26T00:36:40;8.05;;;5.18;;
77955;SDS011;67152;36.266;32.294;2024-02-26T00:39:06;7.43;;;5.50;;
77955;SDS011;67152;36.266;32.294;2024-02-26T00:41:32;10.63;;;5.50;;
77955;SDS011;67152;36.266;32.294;2024-02-26T00:43:58;7.55;;;4.90;;
77955;SDS011;67152;36.266;32.294;2024-02-26T00:46:26;8.52;;;4.82;;
77955;SDS011;67152;36.266;32.294;2024-02-26T00:48:52;10.20;;;5.00;;
77955;SDS011;67152;36.266;32.294;2024-02-26T00:51:18;8.20;;;4.65;;
77955;SDS011;67152;36.266;32.294;2024-02-26T00:53:45;10.23;;;5.32;;
77955;SDS011;67152;36.266;32.294;2024-02-26T00:56:11;6.70;;;4.43;;
77955;SDS011;67152;36.266;32.294;2024-02-26T00:58:37;6.95;;;4.68;;
77955;SDS011;67152;36.266;32.294;2024-02-26T01:01:04;7.00;;;3.20;;
77955;SDS011;67152;36.266;32.294;2024-02-26T01:03:30;7.45;;;4.60;;
77955;SDS011;67152;36.266;32.294;2024-02-26T01:05:56;7.30;;;4.95;;
77955;SDS011;67152;36.266;32.294;2024-02-26T01:08:22;4.10;;;2.90;;
77955;SDS011;67152;36.266;32.294;2024-02-26T01:10:49;10.80;;;4.88;;
77955;SDS011;67152;36.266;32.294;2024-02-26T01:13:15;7.13;;;4.47;;
77955;SDS011;67152;36.266;32.294;2024-02-26T01:15:41;6.05;;;3.92;;
77955;SDS011;67152;36.266;32.294;2024-02-26T01:18:09;8.00;;;4.88;;
77955;SDS011;67152;36.266;32.294;2024-02-26T01:20:35;7.40;;;5.10;;
77955;SDS011;67152;36.266;32.294;2024-02-26T01:23:02;7.90;;;5.57;;
77955;SDS011;67152;36.266;32.294;2024-02-26T01:25:28;6.75;;;4.72;;
77955;SDS011;67152;36.266;32.294;2024-02-26T01:27:55;7.07;;;4.60;;
77955;SDS011;67152;36.266;32.294;2024-02-26T01:30:21;6.90;;;4.22;;
77955;SDS011;67152;36.266;32.294;2024-02-26T01:32:47;8.63;;;4.93;;
77955;SDS011;67152;36.266;32.294;2024-02-26T01:35:14;7.32;;;5.00;;
77955;SDS011;67152;36.266;32.294;2024-02-26T01:37:40;9.73;;;5.35;;
77955;SDS011;67152;36.266;32.294;2024-02-26T01:40:08;9.55;;;5.90;;
77955;SDS011;67152;36.266;32.294;2024-02-26T01:42:37;9.82;;;6.35;;
77955;SDS011;67152;36.266;32.294;2024-02-26T01:45:04;7.57;;;5.35;;
77955;SDS011;67152;36.266;32.294;2024-02-26T01:47:32;12.60;;;6.47;;
77955;SDS011;67152;36.266;32.294;2024-02-26T01:50:00;9.35;;;5.70;;
77955;SDS011;67152;36.266;32.294;2024-02-26T01:52:27;10.93;;;5.05;;
77955;SDS011;67152;36.266;32.294;2024-02-26T01:54:53;8.65;;;5.95;;
77955;SDS011;67152;36.266;32.294;2024-02-26T01:57:19;7.18;;;5.32;;
77955;SDS011;67152;36.266;32.294;2024-02-26T01:59:46;9.80;;;6.70;;
77955;SDS011;67152;36.266;32.294;2024-02-26T02:02:12;10.02;;;5.65;;
77955;SDS011;67152;36.266;32.294;2024-02-26T02:04:41;7.43;;;5.82;;
77955;SDS011;67152;36.266;32.294;2024-02-26T02:07:08;9.18;;;4.78;;
77955;SDS011;67152;36.266;32.294;2024-02-26T02:09:34;8.35;;;5.35;;
77955;SDS011;67152;36.266;32.294;2024-02-26T02:12:01;7.15;;;4.05;;
77955;SDS011;67152;36.266;32.294;2024-02-26T02:14:27;10.98;;;3.53;;
77955;SDS011;67152;36.266;32.294;2024-02-26T02:16:53;10.52;;;4.95;;
77955;SDS011;67152;36.266;32.294;2024-02-26T02:19:20;15.85;;;6.20;;
77955;SDS011;67152;36.266;32.294;2024-02-26T02:21:46;11.40;;;5.25;;
77955;SDS011;67152;36.266;32.294;2024-02-26T02:24:12;13.25;;;5.50;;
77955;SDS011;67152;36.266;32.294;2024-02-26T02:26:38;7.90;;;4.65;;
77955;SDS011;67152;36.266;32.294;2024-02-26T02:29:05;7.25;;;5.00;;
77955;SDS011;67152;36.266;32.294;2024-02-26T02:31:32;6.75;;;4.22;;
77955;SDS011;67152;36.266;32.294;2024-02-26T02:33:59;7.63;;;4.53;;
77955;SDS011;67152;36.266;32.294;2024-02-26T02:36:25;5.57;;;4.00;;
77955;SDS011;67152;36.266;32.294;2024-02-26T02:38:52;8.95;;;5.32;;
77955;SDS011;67152;36.266;32.294;2024-02-26T02:41:18;7.63;;;4.28;;
77955;SDS011;67152;36.266;32.294;2024-02-26T02:43:44;4.95;;;3.58;;
77955;SDS011;67152;36.266;32.294;2024-02-26T02:46:11;8.45;;;3.58;;
77955;SDS011;67152;36.266;32.294;2024-02-26T02:48:37;6.55;;;5.22;;
77955;SDS011;67152;36.266;32.294;2024-02-26T02:51:04;7.20;;;5.15;;
77955;SDS011;67152;36.266;32.294;2024-02-26T02:53:30;8.27;;;4.55;;
77955;SDS011;67152;36.266;32.294;2024-02-26T02:55:57;8.63;;;4.68;;
77955;SDS011;67152;36.266;32.294;2024-02-26T02:58:23;13.63;;;5.75;;
77955;SDS011;67152;36.266;32.294;2024-02-26T03:00:49;8.43;;;5.13;;
77955;SDS011;67152;36.266;32.294;2024-02-26T03:03:15;8.88;;;4.88;;
77955;SDS011;67152;36.266;32.294;2024-02-26T03:05:42;9.32;;;5.10;;
77955;SDS011;67152;36.266;32.294;2024-02-26T03:08:08;8.00;;;4.47;;
77955;SDS011;67152;36.266;32.294;2024-02-26T03:10:35;7.90;;;5.18;;
77955;SDS011;67152;36.266;32.294;2024-02-26T03:13:01;12.73;;;6.60;;
77955;SDS011;67152;36.266;32.294;2024-02-26T03:15:28;9.13;;;5.00;;
77955;SDS011;67152;36.266;32.294;2024-02-26T03:17:54;7.32;;;5.10;;
77955;SDS011;67152;36.266;32.294;2024-02-26T03:20:21;6.63;;;4.35;;
77955;SDS011;67152;36.266;32.294;2024-02-26T03:22:47;9.50;;;5.20;;
77955;SDS011;67152;36.266;32.294;2024-02-26T03:25:13;7.00;;;4.53;;
77955;SDS011;67152;36.266;32.294;2024-02-26T03:27:40;10.52;;;4.55;;
77955;SDS011;67152;36.266;32.294;2024-02-26T03:30:06;9.85;;;4.80;;
77955;SDS011;67152;36.266;32.294;2024-02-26T03:32:33;7.22;;;4.38;;
77955;SDS011;67152;36.266;32.294;2024-02-26T03:34:59;9.20;;;5.50;;
77955;SDS011;67152;36.266;32.294;2024-02-26T03:37:26;7.75;;;5.47;;
77955;SDS011;67152;36.266;32.294;2024-02-26T03:39:52;6.82;;;4.63;;
77955;SDS011;67152;36.266;32.294;2024-02-26T03:42:18;9.90;;;5.25;;
77955;SDS011;67152;36.266;32.294;2024-02-26T03:44:45;10.00;;;5.65;;
77955;SDS011;67152;36.266;32.294;2024-02-26T03:47:11;10.95;;;6.40;;
77955;SDS011;67152;36.266;32.294;2024-02-26T03:49:37;9.80;;;6.30;;
77955;SDS011;67152;36.266;32.294;2024-02-26T03:52:04;10.88;;;6.43;;
77955;SDS011;67152;36.266;32.294;2024-02-26T03:54:30;12.75;;;6.28;;
77955;SDS011;67152;36.266;32.294;2024-02-26T03:56:56;9.15;;;6.53;;
77955;SDS011;67152;36.266;32.294;2024-02-26T03:59:23;20.92;;;7.43;;
77955;SDS011;67152;36.266;32.294;2024-02-26T04:01:50;11.27;;;7.10;;
77955;SDS011;67152;36.266;32.294;2024-02-26T04:04:17;11.80;;;6.97;;
77955;SDS011;67152;36.266;32.294;2024-02-26T04:06:46;11.45;;;6.75;;
77955;SDS011;67152;36.266;32.294;2024-02-26T04:09:13;18.00;;;7.97;;
77955;SDS011;67152;36.266;32.294;2024-02-26T04:11:40;13.13;;;8.60;;
77955;SDS011;67152;36.266;32.294;2024-02-26T04:14:06;10.45;;;6.82;;
77955;SDS011;67152;36.266;32.294;2024-02-26T04:16:34;10.95;;;6.05;;
77955;SDS011;67152;36.266;32.294;2024-02-26T04:19:01;12.25;;;7.43;;
77955;SDS011;67152;36.266;32.294;2024-02-26T04:21:28;8.65;;;5.15;;
77955;SDS011;67152;36.266;32.294;2024-02-26T04:23:54;9.15;;;6.22;;
77955;SDS011;67152;36.266;32.294;2024-02-26T04:26:26;11.02;;;5.20;;
77955;SDS011;67152;36.266;32.294;2024-02-26T04:28:53;12.98;;;6.38;;
77955;SDS011;67152;36.266;32.294;2024-02-26T04:31:19;14.13;;;6.40;;
77955;SDS011;67152;36.266;32.294;2024-02-26T04:33:46;11.70;;;5.13;;
77955;SDS011;67152;36.266;32.294;2024-02-26T04:36:15;11.63;;;5.85;;
77955;SDS011;67152;36.266;32.294;2024-02-26T04:38:42;10.73;;;6.95;;
77955;SDS011;67152;36.266;32.294;2024-02-26T04:41:09;12.13;;;5.07;;
77955;SDS011;67152;36.266;32.294;2024-02-26T04:43:35;14.32;;;6.80;;
77955;SDS011;67152;36.266;32.294;2024-02-26T04:46:07;11.25;;;5.75;;
77955;SDS011;67152;36.266;32.294;2024-02-26T04:48:34;19.65;;;7.28;;
77955;SDS011;67152;36.266;32.294;2024-02-26T04:51:01;16.25;;;6.82;;
77955;SDS011;67152;36.266;32.294;2024-02-26T04:53:28;14.60;;;8.05;;
77955;SDS011;67152;36.266;32.294;2024-02-26T04:55:55;17.35;;;8.35;;
77955;SDS011;67152;36.266;32.294;2024-02-26T04:58:21;15.70;;;8.13;;
77955;SDS011;67152;36.266;32.294;2024-02-26T05:00:47;16.77;;;9.00;;
77955;SDS011;67152;36.266;32.294;2024-02-26T05:03:14;34.33;;;13.68;;
77955;SDS011;67152;36.266;32.294;2024-02-26T05:05:44;27.67;;;11.52;;
77955;SDS011;67152;36.266;32.294;2024-02-26T05:08:11;21.90;;;11.55;;
77955;SDS011;67152;36.266;32.294;2024-02-26T05:10:37;22.25;;;12.57;;
77955;SDS011;67152;36.266;32.294;2024-02-26T05:13:06;19.17;;;8.80;;
77955;SDS011;67152;36.266;32.294;2024-02-26T05:15:33;13.95;;;6.22;;
77955;SDS011;67152;36.266;32.294;2024-02-26T05:17:59;16.23;;;8.48;;
77955;SDS011;67152;36.266;32.294;2024-02-26T05:20:26;13.55;;;7.15;;
77955;SDS011;67152;36.266;32.294;2024-02-26T05:22:53;14.50;;;4.90;;
77955;SDS011;67152;36.266;32.294;2024-02-26T05:25:19;13.65;;;6.57;;
77955;SDS011;67152;36.266;32.294;2024-02-26T05:27:45;17.60;;;7.85;;
77955;SDS011;67152;36.266;32.294;2024-02-26T05:30:12;17.80;;;8.73;;
77955;SDS011;67152;36.266;32.294;2024-02-26T05:32:39;15.70;;;8.85;;
77955;SDS011;67152;36.266;32.294;2024-02-26T05:35:05;22.27;;;9.15;;
77955;SDS011;67152;36.266;32.294;2024-02-26T05:37:32;16.55;;;6.35;;
77955;SDS011;67152;36.266;32.294;2024-02-26T05:39:59;21.23;;;8.85;;
77955;SDS011;67152;36.266;32.294;2024-02-26T05:42:25;21.30;;;9.27;;
77955;SDS011;67152;36.266;32.294;2024-02-26T05:44:51;33.42;;;9.20;;
77955;SDS011;67152;36.266;32.294;2024-02-26T05:47:18;22.38;;;7.05;;
77955;SDS011;67152;36.266;32.294;2024-02-26T05:49:44;19.85;;;9.00;;
77955;SDS011;67152;36.266;32.294;2024-02-26T05:52:10;22.88;;;8.55;;
77955;SDS011;67152;36.266;32.294;2024-02-26T05:54:37;16.25;;;9.25;;
77955;SDS011;67152;36.266;32.294;2024-02-26T05:57:03;27.98;;;10.18;;
77955;SDS011;67152;36.266;32.294;2024-02-26T05:59:29;32.65;;;10.98;;
77955;SDS011;67152;36.266;32.294;2024-02-26T06:01:56;21.80;;;9.10;;
77955;SDS011;67152;36.266;32.294;2024-02-26T06:04:22;40.83;;;9.65;;
77955;SDS011;67152;36.266;32.294;2024-02-26T06:06:49;20.02;;;9.23;;
77955;SDS011;67152;36.266;32.294;2024-02-26T06:09:15;16.10;;;8.57;;
77955;SDS011;67152;36.266;32.294;2024-02-26T06:11:41;12.48;;;6.65;;
77955;SDS011;67152;36.266;32.294;2024-02-26T06:14:08;15.50;;;7.53;;
77955;SDS011;67152;36.266;32.294;2024-02-26T06:16:35;12.25;;;7.40;;
77955;SDS011;67152;36.266;32.294;2024-02-26T06:19:02;19.02;;;8.57;;
77955;SDS011;67152;36.266;32.294;2024-02-26T06:21:28;26.30;;;9.27;;
77955;SDS011;67152;36.266;32.294;2024-02-26T06:23:54;17.00;;;6.75;;
77955;SDS011;67152;36.266;32.294;2024-02-26T06:26:20;16.05;;;5.95;;
77955;SDS011;67152;36.266;32.294;2024-02-26T06:28:47;16.05;;;7.47;;
77955;SDS011;67152;36.266;32.294;2024-02-26T06:31:13;20.70;;;7.85;;
77955;SDS011;67152;36.266;32.294;2024-02-26T06:33:39;19.00;;;7.70;;
77955;SDS011;67152;36.266;32.294;2024-02-26T06:36:06;31.70;;;7.85;;
77955;SDS011;67152;36.266;32.294;2024-02-26T06:38:33;14.55;;;8.10;;
77955;SDS011;67152;36.266;32.294;2024-02-26T06:40:59;26.52;;;6.95;;
77955;SDS011;67152;36.266;32.294;2024-02-26T06:43:26;36.95;;;8.50;;
77955;SDS011;67152;36.266;32.294;2024-02-26T06:45:52;39.55;;;8.45;;
77955;SDS011;67152;36.266;32.294;2024-02-26T06:48:18;20.95;;;8.50;;
77955;SDS011;67152;36.266;32.294;2024-02-26T06:50:44;42.35;;;9.07;;
77955;SDS011;67152;36.266;32.294;2024-02-26T06:53:11;40.80;;;9.82;;
77955;SDS011;67152;36.266;32.294;2024-02-26T06:55:37;27.48;;;8.88;;
77955;SDS011;67152;36.266;32.294;2024-02-26T06:58:06;49.85;;;8.75;;
77955;SDS011;67152;36.266;32.294;2024-02-26T07:00:32;28.23;;;8.70;;
77955;SDS011;67152;36.266;32.294;2024-02-26T07:02:58;31.67;;;8.27;;
77955;SDS011;67152;36.266;32.294;2024-02-26T07:05:24;49.95;;;9.95;;
77955;SDS011;67152;36.266;32.294;2024-02-26T07:07:51;57.40;;;11.43;;
77955;SDS011;67152;36.266;32.294;2024-02-26T07:10:18;50.08;;;13.02;;
77955;SDS011;67152;36.266;32.294;2024-02-26T07:12:44;48.20;;;11.93;;
77955;SDS011;67152;36.266;32.294;2024-02-26T07:15:10;30.33;;;9.32;;
77955;SDS011;67152;36.266;32.294;2024-02-26T07:17:37;40.42;;;10.00;;
77955;SDS011;67152;36.266;32.294;2024-02-26T07:20:08;43.20;;;9.68;;
77955;SDS011;67152;36.266;32.294;2024-02-26T07:22:34;29.33;;;10.35;;
77955;SDS011;67152;36.266;32.294;2024-02-26T07:25:01;34.63;;;10.75;;
77955;SDS011;67152;36.266;32.294;2024-02-26T07:27:27;34.67;;;9.07;;
77955;SDS011;67152;36.266;32.294;2024-02-26T07:29:54;35.78;;;15.02;;
77955;SDS011;67152;36.266;32.294;2024-02-26T07:32:20;37.13;;;13.07;;
77955;SDS011;67152;36.266;32.294;2024-02-26T07:34:46;68.50;;;12.52;;
77955;SDS011;67152;36.266;32.294;2024-02-26T07:37:12;54.15;;;11.95;;
77955;SDS011;67152;36.266;32.294;2024-02-26T07:39:40;22.70;;;11.02;;
77955;SDS011;67152;36.266;32.294;2024-02-26T07:42:07;27.80;;;11.35;;
77955;SDS011;67152;36.266;32.294;2024-02-26T07:44:33;20.33;;;10.00;;
77955;SDS011;67152;36.266;32.294;2024-02-26T07:47:00;17.90;;;7.75;;
77955;SDS011;67152;36.266;32.294;2024-02-26T07:49:26;12.82;;;7.50;;
77955;SDS011;67152;36.266;32.294;2024-02-26T07:51:52;35.10;;;10.95;;
77955;SDS011;67152;36.266;32.294;2024-02-26T07:54:19;26.70;;;10.32;;
77955;SDS011;67152;36.266;32.294;2024-02-26T07:56:45;29.00;;;10.48;;
77955;SDS011;67152;36.266;32.294;2024-02-26T07:59:30;39.95;;;10.45;;
77955;SDS011;67152;36.266;32.294;2024-02-26T08:01:57;35.83;;;9.15;;
77955;SDS011;67152;36.266;32.294;2024-02-26T08:04:23;27.00;;;9.02;;
77955;SDS011;67152;36.266;32.294;2024-02-26T08:06:51;24.80;;;10.10;;
77955;SDS011;67152;36.266;32.294;2024-02-26T08:09:17;18.88;;;11.05;;
77955;SDS011;67152;36.266;32.294;2024-02-26T08:11:43;31.27;;;12.15;;
77955;SDS011;67152;36.266;32.294;2024-02-26T08:14:10;31.88;;;12.60;;
77955;SDS011;67152;36.266;32.294;2024-02-26T08:16:36;28.33;;;12.88;;
77955;SDS011;67152;36.266;32.294;2024-02-26T08:19:02;36.83;;;13.70;;
77955;SDS011;67152;36.266;32.294;2024-02-26T08:21:29;23.00;;;10.57;;
77955;SDS011;67152;36.266;32.294;2024-02-26T08:23:55;31.67;;;13.57;;
77955;SDS011;67152;36.266;32.294;2024-02-26T08:26:22;41.75;;;12.00;;
77955;SDS011;67152;36.266;32.294;2024-02-26T08:28:49;19.70;;;7.38;;
77955;SDS011;67152;36.266;32.294;2024-02-26T08:31:17;26.02;;;10.60;;
77955;SDS011;67152;36.266;32.294;2024-02-26T08:33:43;23.70;;;10.95;;
77955;SDS011;67152;36.266;32.294;2024-02-26T08:36:11;25.88;;;12.05;;
77955;SDS011;67152;36.266;32.294;2024-02-26T08:38:37;22.27;;;12.35;;
77955;SDS011;67152;36.266;32.294;2024-02-26T08:41:04;17.30;;;9.15;;
77955;SDS011;67152;36.266;32.294;2024-02-26T08:43:30;20.98;;;10.38;;
77955;SDS011;67152;36.266;32.294;2024-02-26T08:45:57;25.40;;;10.25;;
77955;SDS011;67152;36.266;32.294;2024-02-26T08:48:24;32.60;;;9.93;;
77955;SDS011;67152;36.266;32.294;2024-02-26T08:50:50;34.20;;;10.90;;
77955;SDS011;67152;36.266;32.294;2024-02-26T08:53:16;28.08;;;9.82;;
77955;SDS011;67152;36.266;32.294;2024-02-26T08:55:43;23.63;;;9.07;;
77955;SDS011;67152;36.266;32.294;2024-02-26T08:58:09;18.20;;;8.85;;
77955;SDS011;67152;36.266;32.294;2024-02-26T09:00:36;34.97;;;8.35;;
77955;SDS011;67152;36.266;32.294;2024-02-26T09:03:02;21.80;;;8.18;;
77955;SDS011;67152;36.266;32.294;2024-02-26T09:05:30;16.63;;;7.57;;
77955;SDS011;67152;36.266;32.294;2024-02-26T09:07:56;14.30;;;6.60;;
77955;SDS011;67152;36.266;32.294;2024-02-26T09:10:22;21.83;;;6.97;;
77955;SDS011;67152;36.266;32.294;2024-02-26T09:12:49;13.90;;;6.03;;
77955;SDS011;67152;36.266;32.294;2024-02-26T09:15:15;10.60;;;5.20;;
77955;SDS011;67152;36.266;32.294;2024-02-26T09:17:41;7.50;;;4.97;;
77955;SDS011;67152;36.266;32.294;2024-02-26T09:20:08;13.15;;;5.95;;
77955;SDS011;67152;36.266;32.294;2024-02-26T09:22:35;10.35;;;5.43;;
77955;SDS011;67152;36.266;32.294;2024-02-26T09:25:04;14.95;;;6.55;;
77955;SDS011;67152;36.266;32.294;2024-02-26T09:27:32;14.02;;;6.45;;
77955;SDS011;67152;36.266;32.294;2024-02-26T09:29:58;16.97;;;6.20;;
77955;SDS011;67152;36.266;32.294;2024-02-26T09:32:25;9.85;;;6.22;;
77955;SDS011;67152;36.266;32.294;2024-02-26T09:34:51;14.73;;;5.27;;
77955;SDS011;67152;36.266;32.294;2024-02-26T09:37:18;9.95;;;5.82;;
77955;SDS011;67152;36.266;32.294;2024-02-26T09:39:44;11.02;;;5.40;;
77955;SDS011;67152;36.266;32.294;2024-02-26T09:42:11;12.63;;;5.80;;
77955;SDS011;67152;36.266;32.294;2024-02-26T09:47:08;10.05;;;5.47;;
77955;SDS011;67152;36.266;32.294;2024-02-26T09:49:35;10.23;;;5.32;;
77955;SDS011;67152;36.266;32.294;2024-02-26T09:52:03;14.95;;;5.57;;
77955;SDS011;67152;36.266;32.294;2024-02-26T09:54:30;15.32;;;5.05;;
77955;SDS011;67152;36.266;32.294;2024-02-26T09:56:59;8.60;;;5.28;;
77955;SDS011;67152;36.266;32.294;2024-02-26T09:59:29;8.23;;;5.47;;
77955;SDS011;67152;36.266;32.294;2024-02-26T10:02:02;10.30;;;5.03;;
77955;SDS011;67152;36.266;32.294;2024-02-26T10:04:29;8.02;;;5.50;;
77955;SDS011;67152;36.266;32.294;2024-02-26T10:06:57;10.52;;;5.13;;
77955;SDS011;67152;36.266;32.294;2024-02-26T10:09:25;13.43;;;5.13;;
77955;SDS011;67152;36.266;32.294;2024-02-26T10:11:52;9.40;;;4.10;;
77955;SDS011;67152;36.266;32.294;2024-02-26T10:14:18;8.83;;;4.13;;
77955;SDS011;67152;36.266;32.294;2024-02-26T10:16:44;7.35;;;4.20;;
77955;SDS011;67152;36.266;32.294;2024-02-26T10:19:13;6.68;;;4.20;;
77955;SDS011;67152;36.266;32.294;2024-02-26T10:21:57;7.07;;;3.75;;
77955;SDS011;67152;36.266;32.294;2024-02-26T10:24:24;5.10;;;3.70;;
77955;SDS011;67152;36.266;32.294;2024-02-26T10:29:18;8.77;;;3.70;;
77955;SDS011;67152;36.266;32.294;2024-02-26T10:31:45;18.02;;;3.75;;
77955;SDS011;67152;36.266;32.294;2024-02-26T10:34:11;5.40;;;3.60;;
77955;SDS011;67152;36.266;32.294;2024-02-26T10:36:39;6.97;;;3.30;;
77955;SDS011;67152;36.266;32.294;2024-02-26T10:39:09;19.80;;;4.22;;
77955;SDS011;67152;36.266;32.294;2024-02-26T10:41:38;10.52;;;3.88;;
77955;SDS011;67152;36.266;32.294;2024-02-26T10:44:07;8.70;;;4.30;;
77955;SDS011;67152;36.266;32.294;2024-02-26T10:46:42;6.65;;;3.45;;
77955;SDS011;67152;36.266;32.294;2024-02-26T10:49:14;6.30;;;3.55;;
77955;SDS011;67152;36.266;32.294;2024-02-26T10:51:45;24.55;;;4.40;;
77955;SDS011;67152;36.266;32.294;2024-02-26T10:54:21;7.10;;;3.80;;
77955;SDS011;67152;36.266;32.294;2024-02-26T10:56:47;10.27;;;3.78;;
77955;SDS011;67152;36.266;32.294;2024-02-26T10:59:15;10.57;;;3.83;;
77955;SDS011;67152;36.266;32.294;2024-02-26T11:01:47;7.90;;;4.38;;
77955;SDS011;67152;36.266;32.294;2024-02-26T11:04:15;4.95;;;3.72;;
77955;SDS011;67152;36.266;32.294;2024-02-26T11:06:42;9.48;;;3.95;;
77955;SDS011;67152;36.266;32.294;2024-02-26T11:09:11;22.10;;;4.45;;
77955;SDS011;67152;36.266;32.294;2024-02-26T11:11:39;10.82;;;4.32;;
77955;SDS011;67152;36.266;32.294;2024-02-26T11:14:06;14.52;;;4.38;;
77955;SDS011;67152;36.266;32.294;2024-02-26T11:16:35;11.95;;;4.10;;
77955;SDS011;67152;36.266;32.294;2024-02-26T11:19:02;6.85;;;4.20;;
77955;SDS011;67152;36.266;32.294;2024-02-26T11:21:29;10.90;;;4.15;;
77955;SDS011;67152;36.266;32.294;2024-02-26T11:24:09;9.00;;;5.53;;
77955;SDS011;67152;36.266;32.294;2024-02-26T11:26:41;12.05;;;6.03;;
77955;SDS011;67152;36.266;32.294;2024-02-26T11:29:11;30.08;;;7.00;;
77955;SDS011;67152;36.266;32.294;2024-02-26T11:31:39;16.85;;;5.25;;
77955;SDS011;67152;36.266;32.294;2024-02-26T11:34:06;11.37;;;4.93;;
77955;SDS011;67152;36.266;32.294;2024-02-26T11:36:34;12.07;;;5.57;;
77955;SDS011;67152;36.266;32.294;2024-02-26T11:39:01;13.48;;;5.68;;
77955;SDS011;67152;36.266;32.294;2024-02-26T11:41:29;20.48;;;5.03;;
77955;SDS011;67152;36.266;32.294;2024-02-26T11:44:02;13.32;;;5.20;;
77955;SDS011;67152;36.266;32.294;2024-02-26T11:46:33;9.57;;;5.40;;
77955;SDS011;67152;36.266;32.294;2024-02-26T11:51:52;21.73;;;5.85;;
77955;SDS011;67152;36.266;32.294;2024-02-26T11:59:51;10.15;;;4.78;;
77955;SDS011;67152;36.266;32.294;2024-02-26T12:05:19;12.82;;;5.13;;
77955;SDS011;67152;36.266;32.294;2024-02-26T12:07:50;21.88;;;5.40;;
77955;SDS011;67152;36.266;32.294;2024-02-26T12:10:26;11.80;;;4.28;;
77955;SDS011;67152;36.266;32.294;2024-02-26T12:15:23;11.50;;;4.97;;
77955;SDS011;67152;36.266;32.294;2024-02-26T12:17:52;26.50;;;5.07;;
77955;SDS011;67152;36.266;32.294;2024-02-26T12:20:18;12.45;;;4.50;;
77955;SDS011;67152;36.266;32.294;2024-02-26T12:22:45;12.68;;;5.82;;
77955;SDS011;67152;36.266;32.294;2024-02-26T12:25:15;11.60;;;4.55;;
77955;SDS011;67152;36.266;32.294;2024-02-26T12:27:42;15.10;;;4.55;;
77955;SDS011;67152;36.266;32.294;2024-02-26T12:30:08;17.50;;;5.30;;
77955;SDS011;67152;36.266;32.294;2024-02-26T12:32:35;19.52;;;4.95;;
77955;SDS011;67152;36.266;32.294;2024-02-26T12:35:02;10.32;;;4.97;;
77955;SDS011;67152;36.266;32.294;2024-02-26T12:37:29;11.98;;;4.88;;
77955;SDS011;67152;36.266;32.294;2024-02-26T12:39:56;13.45;;;4.75;;
77955;SDS011;67152;36.266;32.294;2024-02-26T12:42:22;12.40;;;5.22;;
77955;SDS011;67152;36.266;32.294;2024-02-26T12:44:49;15.37;;;4.87;;
77955;SDS011;67152;36.266;32.294;2024-02-26T12:47:15;11.93;;;5.10;;
77955;SDS011;67152;36.266;32.294;2024-02-26T12:49:42;16.15;;;4.50;;
77955;SDS011;67152;36.266;32.294;2024-02-26T12:52:10;14.40;;;4.28;;
77955;SDS011;67152;36.266;32.294;2024-02-26T12:54:36;7.88;;;3.95;;
77955;SDS011;67152;36.266;32.294;2024-02-26T12:57:06;11.00;;;4.53;;
77955;SDS011;67152;36.266;32.294;2024-02-26T12:59:34;9.40;;;4.40;;
77955;SDS011;67152;36.266;32.294;2024-02-26T13:04:27;9.85;;;4.50;;
77955;SDS011;67152;36.266;32.294;2024-02-26T13:06:55;10.25;;;4.65;;
77955;SDS011;67152;36.266;32.294;2024-02-26T13:09:26;15.52;;;4.60;;
77955;SDS011;67152;36.266;32.294;2024-02-26T13:11:56;11.75;;;4.45;;
77955;SDS011;67152;36.266;32.294;2024-02-26T13:14:22;18.10;;;4.43;;
77955;SDS011;67152;36.266;32.294;2024-02-26T13:16:55;16.63;;;4.57;;
77955;SDS011;67152;36.266;32.294;2024-02-26T13:19:22;22.20;;;4.93;;
77955;SDS011;67152;36.266;32.294;2024-02-26T13:21:49;28.95;;;5.05;;
77955;SDS011;67152;36.266;32.294;2024-02-26T13:24:16;17.42;;;4.95;;
77955;SDS011;67152;36.266;32.294;2024-02-26T13:26:43;18.75;;;4.85;;
77955;SDS011;67152;36.266;32.294;2024-02-26T13:29:16;18.75;;;5.25;;
77955;SDS011;67152;36.266;32.294;2024-02-26T13:31:43;37.47;;;5.40;;
77955;SDS011;67152;36.266;32.294;2024-02-26T13:34:09;14.05;;;4.45;;
77955;SDS011;67152;36.266;32.294;2024-02-26T13:36:35;13.67;;;4.93;;
77955;SDS011;67152;36.266;32.294;2024-02-26T13:39:02;10.77;;;4.63;;
77955;SDS011;67152;36.266;32.294;2024-02-26T13:41:30;11.45;;;4.53;;
77955;SDS011;67152;36.266;32.294;2024-02-26T13:46:24;14.40;;;4.90;;
77955;SDS011;67152;36.266;32.294;2024-02-26T13:48:50;16.52;;;4.60;;
77955;SDS011;67152;36.266;32.294;2024-02-26T13:51:16;18.00;;;5.10;;
77955;SDS011;67152;36.266;32.294;2024-02-26T13:53:43;14.00;;;4.60;;
77955;SDS011;67152;36.266;32.294;2024-02-26T13:56:09;39.40;;;6.30;;
77955;SDS011;67152;36.266;32.294;2024-02-26T13:58:36;17.73;;;5.30;;
77955;SDS011;67152;36.266;32.294;2024-02-26T14:01:02;17.23;;;4.13;;
77955;SDS011;67152;36.266;32.294;2024-02-26T14:03:29;12.33;;;4.10;;
77955;SDS011;67152;36.266;32.294;2024-02-26T14:05:55;14.88;;;7.45;;
77955;SDS011;67152;36.266;32.294;2024-02-26T14:08:22;19.75;;;8.30;;
77955;SDS011;67152;36.266;32.294;2024-02-26T14:10:49;18.00;;;7.17;;
77955;SDS011;67152;36.266;32.294;2024-02-26T14:13:15;25.65;;;7.63;;
77955;SDS011;67152;36.266;32.294;2024-02-26T14:15:41;43.55;;;8.65;;
77955;SDS011;67152;36.266;32.294;2024-02-26T14:18:08;20.00;;;7.30;;
77955;SDS011;67152;36.266;32.294;2024-02-26T14:20:35;19.38;;;7.63;;
77955;SDS011;67152;36.266;32.294;2024-02-26T14:23:01;13.93;;;7.53;;
77955;SDS011;67152;36.266;32.294;2024-02-26T14:25:28;14.13;;;7.43;;
77955;SDS011;67152;36.266;32.294;2024-02-26T14:27:54;28.98;;;8.77;;
77955;SDS011;67152;36.266;32.294;2024-02-26T14:30:22;18.92;;;6.90;;
77955;SDS011;67152;36.266;32.294;2024-02-26T14:32:49;25.27;;;9.90;;
77955;SDS011;67152;36.266;32.294;2024-02-26T14:35:15;23.92;;;8.68;;
77955;SDS011;67152;36.266;32.294;2024-02-26T14:37:41;27.57;;;9.40;;
77955;SDS011;67152;36.266;32.294;2024-02-26T14:42:35;19.77;;;8.33;;
77955;SDS011;67152;36.266;32.294;2024-02-26T14:45:23;13.88;;;6.45;;
77955;SDS011;67152;36.266;32.294;2024-02-26T14:47:49;20.63;;;8.43;;